Time;durP1;ratioP1;P1;durP2;ratioP2;P2;SDS_P1;SDS_P2;PMS_P1;PMS_P2;Temp;Humidity;BMP_temperature;BMP_pressure;BME280_temperature;BME280_humidity;BME280_pressure;Samples;Min_cycle;Max_cycle;Signal;HPM_P1;HPM_P2
2023/09/01 00:02:24;;;;;;;0.60;0.20;;;21.60;72.60;;;;;;5028361;28;20507;-74
2023/09/01 00:04:49;;;;;;;0.22;0.22;;;21.60;72.50;;;;;;5026330;28;20453;-74
2023/09/01 00:07:15;;;;;;;0.20;0.20;;;21.60;72.50;;;;;;5026478;28;20166;-74
2023/09/01 00:09:40;;;;;;;0.38;0.30;;;21.60;72.40;;;;;;5027576;28;20048;-74
2023/09/01 00:12:06;;;;;;;0.28;0.20;;;21.60;72.50;;;;;;5026421;28;20047;-74
2023/09/01 00:14:31;;;;;;;0.40;0.40;;;21.60;72.50;;;;;;5025578;28;20632;-74
2023/09/01 00:16:57;;;;;;;0.30;0.20;;;21.60;72.40;;;;;;5028365;28;20102;-74
2023/09/01 00:19:23;;;;;;;0.35;0.25;;;21.60;72.50;;;;;;5027687;28;20110;-74
2023/09/01 00:21:49;;;;;;;0.30;0.30;;;21.60;72.40;;;;;;5025688;28;20403;-74
2023/09/01 00:24:15;;;;;;;0.30;0.20;;;21.60;72.50;;;;;;5027777;28;20380;-74
2023/09/01 00:26:41;;;;;;;0.45;0.45;;;21.60;72.40;;;;;;5022533;28;20577;-74
2023/09/01 00:29:06;;;;;;;0.38;0.32;;;21.60;72.50;;;;;;5027862;28;20037;-74
2023/09/01 00:31:35;;;;;;;0.50;0.30;;;21.60;72.50;;;;;;5024981;28;20048;-74
2023/09/01 00:34:00;;;;;;;0.20;0.20;;;21.60;72.50;;;;;;5024698;28;20065;-74
2023/09/01 00:36:26;;;;;;;0.40;0.30;;;21.60;72.60;;;;;;5026612;28;20037;-74
2023/09/01 00:38:52;;;;;;;0.28;0.28;;;21.60;72.50;;;;;;5026987;28;20661;-74
2023/09/01 00:41:17;;;;;;;0.20;0.20;;;21.60;72.50;;;;;;5027545;28;20132;-74
2023/09/01 00:43:43;;;;;;;0.57;0.30;;;21.60;72.60;;;;;;5027099;28;20407;-74
2023/09/01 00:46:08;;;;;;;0.30;0.20;;;21.60;72.70;;;;;;5027829;28;20041;-74
2023/09/01 00:48:34;;;;;;;0.77;0.20;;;21.60;72.70;;;;;;5025484;28;20069;-74
2023/09/01 00:51:00;;;;;;;0.30;0.20;;;21.60;72.80;;;;;;5023912;28;20045;-74
2023/09/01 00:53:25;;;;;;;0.30;0.20;;;21.60;72.90;;;;;;5024915;28;20060;-74
2023/09/01 00:55:52;;;;;;;0.52;0.40;;;21.60;72.80;;;;;;5025916;28;20033;-74
2023/09/01 00:58:18;;;;;;;0.20;0.20;;;21.60;72.90;;;;;;5028053;28;20044;-74
2023/09/01 01:00:44;;;;;;;0.22;0.20;;;21.60;72.90;;;;;;5025947;28;20033;-74
2023/09/01 01:03:10;;;;;;;0.22;0.17;;;21.60;73.00;;;;;;5024405;28;20064;-74
2023/09/01 01:05:51;;;;;;;0.30;0.20;;;21.60;73.00;;;;;;5022238;28;20068;-74
2023/09/01 01:08:30;;;;;;;0.32;0.32;;;21.60;73.00;;;;;;5050941;28;20423;-74
2023/09/01 01:11:22;;;;;;;0.30;0.17;;;21.60;73.10;;;;;;5023650;28;20041;-74
2023/09/01 01:13:54;;;;;;;0.10;0.10;;;21.60;73.20;;;;;;5018547;28;20049;-74
2023/09/01 01:16:19;;;;;;;0.20;0.20;;;21.60;73.20;;;;;;5021430;28;20113;-74
2023/09/01 01:18:45;;;;;;;0.20;0.20;;;21.60;73.20;;;;;;5005668;28;20538;-74
2023/09/01 01:21:16;;;;;;;0.35;0.30;;;21.60;73.30;;;;;;5024173;28;20049;-74
2023/09/01 01:23:42;;;;;;;0.28;0.20;;;21.60;73.20;;;;;;5025076;28;20507;-74
2023/09/01 01:26:08;;;;;;;0.55;0.40;;;21.60;73.20;;;;;;5023460;28;20686;-74
2023/09/01 01:28:33;;;;;;;0.28;0.10;;;21.60;73.20;;;;;;5023891;28;20582;-74
2023/09/01 01:30:59;;;;;;;0.50;0.30;;;21.60;73.20;;;;;;5027151;28;20087;-74
2023/09/01 01:33:33;;;;;;;0.52;0.25;;;21.60;73.20;;;;;;5024260;28;20407;-74
2023/09/01 01:36:18;;;;;;;0.25;0.20;;;21.60;73.20;;;;;;5021062;28;20419;-74
2023/09/01 01:38:47;;;;;;;0.28;0.28;;;21.60;73.30;;;;;;5024186;28;20092;-74
2023/09/01 01:41:19;;;;;;;0.40;0.40;;;21.60;73.30;;;;;;5024458;28;20060;-74
2023/09/01 01:43:45;;;;;;;0.20;0.20;;;21.60;74.10;;;;;;5024361;28;20077;-74
2023/09/01 01:46:11;;;;;;;0.22;0.20;;;21.60;73.30;;;;;;5023763;28;20076;-74
2023/09/01 01:48:39;;;;;;;0.30;0.30;;;21.60;73.40;;;;;;5023485;28;20040;-74
2023/09/01 01:51:07;;;;;;;0.10;0.10;;;21.60;73.40;;;;;;5024763;28;23579;-74
2023/09/01 01:53:36;;;;;;;0.20;0.10;;;21.60;73.40;;;;;;5025369;28;20069;-74
2023/09/01 01:56:03;;;;;;;0.50;0.30;;;21.60;73.30;;;;;;5025191;28;20085;-74
2023/09/01 01:58:29;;;;;;;0.50;0.30;;;21.60;73.40;;;;;;5026514;28;20044;-74
2023/09/01 02:00:55;;;;;;;0.20;0.20;;;21.60;73.40;;;;;;5026078;28;20045;-74
2023/09/01 02:03:20;;;;;;;0.10;0.10;;;21.50;73.40;;;;;;5026835;28;20175;-73
2023/09/01 02:05:46;;;;;;;0.20;0.20;;;21.60;73.50;;;;;;5021871;28;20048;-73
2023/09/01 02:08:12;;;;;;;0.22;0.20;;;21.50;73.30;;;;;;5026249;28;20128;-73
2023/09/01 02:10:37;;;;;;;0.30;0.30;;;21.50;73.30;;;;;;5025471;28;20053;-74
2023/09/01 02:13:04;;;;;;;0.40;0.40;;;21.60;73.40;;;;;;5025499;28;20136;-73
2023/09/01 02:15:33;;;;;;;0.32;0.32;;;21.50;73.40;;;;;;5025862;28;20037;-74
2023/09/01 02:17:58;;;;;;;0.10;0.10;;;21.60;73.50;;;;;;5025369;28;20057;-74
2023/09/01 02:20:26;;;;;;;0.40;0.30;;;21.60;73.60;;;;;;5026102;28;20054;-74
2023/09/01 02:22:53;;;;;;;0.40;0.40;;;21.60;73.40;;;;;;5024029;28;20400;-74
2023/09/01 02:25:18;;;;;;;0.40;0.30;;;21.60;73.50;;;;;;5027224;28;20041;-74
2023/09/01 02:27:44;;;;;;;0.22;0.20;;;21.60;73.60;;;;;;5024982;28;20052;-74
2023/09/01 02:30:10;;;;;;;0.20;0.17;;;21.60;73.50;;;;;;5025347;28;20048;-74
2023/09/01 02:32:36;;;;;;;0.20;0.20;;;21.50;73.90;;;;;;5020903;28;20045;-74
2023/09/01 02:35:05;;;;;;;0.13;0.10;;;21.50;73.60;;;;;;5024524;28;20052;-74
2023/09/01 02:37:32;;;;;;;0.30;0.30;;;21.50;73.50;;;;;;5025914;28;20048;-74
2023/09/01 02:39:57;;;;;;;0.30;0.30;;;21.60;73.70;;;;;;5026371;28;20052;-73
2023/09/01 02:42:23;;;;;;;0.20;0.20;;;21.60;73.90;;;;;;5026083;28;20037;-73
2023/09/01 02:44:49;;;;;;;0.30;0.20;;;21.60;73.60;;;;;;5025012;28;20038;-73
2023/09/01 02:47:15;;;;;;;0.10;0.10;;;21.50;73.90;;;;;;5025985;28;20053;-73
2023/09/01 02:49:40;;;;;;;0.35;0.30;;;21.50;73.70;;;;;;5025413;28;20839;-73
2023/09/01 02:52:06;;;;;;;0.40;0.40;;;21.60;74.00;;;;;;5022294;28;20427;-74
2023/09/01 02:54:32;;;;;;;0.20;0.20;;;21.60;73.90;;;;;;5025735;28;20176;-74
2023/09/01 02:56:57;;;;;;;0.22;0.20;;;21.60;74.00;;;;;;5024674;28;20045;-74
2023/09/01 02:59:23;;;;;;;0.22;0.20;;;21.50;74.40;;;;;;5028031;28;20056;-74
2023/09/01 03:01:49;;;;;;;0.20;0.20;;;21.50;73.90;;;;;;5029677;28;20045;-74
2023/09/01 03:04:15;;;;;;;0.20;0.20;;;21.50;74.10;;;;;;5028891;28;20046;-74
2023/09/01 03:06:40;;;;;;;0.20;0.20;;;21.50;74.20;;;;;;5028243;28;20042;-74
2023/09/01 03:09:09;;;;;;;0.30;0.30;;;21.50;73.90;;;;;;5028531;28;20041;-74
2023/09/01 03:11:35;;;;;;;0.20;0.20;;;21.50;74.30;;;;;;5027548;28;20128;-74
2023/09/01 03:14:00;;;;;;;0.20;0.20;;;21.60;74.30;;;;;;5028607;28;20116;-74
2023/09/01 03:16:30;;;;;;;0.30;0.30;;;21.50;74.10;;;;;;5028255;28;20072;-74
2023/09/01 03:18:59;;;;;;;0.40;0.20;;;21.50;73.80;;;;;;5029216;28;20060;-74
2023/09/01 03:21:26;;;;;;;0.57;0.30;;;21.50;75.00;;;;;;5029095;28;20065;-74
2023/09/01 03:23:52;;;;;;;0.47;0.20;;;21.50;74.20;;;;;;5026765;28;20053;-74
2023/09/01 03:26:19;;;;;;;0.28;0.22;;;21.50;74.30;;;;;;5027690;28;20050;-74
2023/09/01 03:28:45;;;;;;;0.20;0.20;;;21.50;74.40;;;;;;5028680;28;20073;-74
2023/09/01 03:31:11;;;;;;;0.20;0.20;;;21.50;74.40;;;;;;5028595;28;20088;-74
2023/09/01 03:33:36;;;;;;;0.55;0.15;;;21.50;74.40;;;;;;5016684;28;20419;-74
2023/09/01 03:36:03;;;;;;;0.20;0.20;;;21.50;74.40;;;;;;5026864;28;20048;-73
2023/09/01 03:38:28;;;;;;;0.50;0.20;;;21.50;74.40;;;;;;5027768;28;20502;-73
2023/09/01 03:40:54;;;;;;;0.50;0.30;;;21.50;74.30;;;;;;5027161;28;20538;-74
2023/09/01 03:43:19;;;;;;;0.20;0.15;;;21.50;74.60;;;;;;5029564;28;20045;-74
2023/09/01 03:45:46;;;;;;;0.28;0.20;;;21.50;74.50;;;;;;5026689;28;20034;-74
2023/09/01 03:48:11;;;;;;;0.30;0.28;;;21.50;74.50;;;;;;5027777;28;20128;-74
2023/09/01 03:50:37;;;;;;;0.17;0.17;;;21.50;74.20;;;;;;5026733;28;20463;-74
2023/09/01 03:53:02;;;;;;;0.30;0.20;;;21.50;74.40;;;;;;5026213;28;20087;-74
2023/09/01 03:55:28;;;;;;;0.22;0.20;;;21.50;74.30;;;;;;5027444;28;20053;-74
2023/09/01 03:57:54;;;;;;;0.20;0.20;;;21.50;74.40;;;;;;5026862;28;20045;-74
2023/09/01 04:00:20;;;;;;;0.25;0.25;;;21.50;74.40;;;;;;5028412;28;20049;-74
2023/09/01 04:02:45;;;;;;;0.20;0.20;;;21.50;74.40;;;;;;5026188;28;20132;-74
2023/09/01 04:05:11;;;;;;;0.55;0.30;;;21.50;74.40;;;;;;5026959;28;20083;-74
2023/09/01 04:07:37;;;;;;;0.20;0.10;;;21.50;74.40;;;;;;5026378;28;20526;-74
2023/09/01 04:10:04;;;;;;;0.30;0.25;;;21.50;74.60;;;;;;5024905;28;20046;-74
2023/09/01 04:12:30;;;;;;;0.28;0.25;;;21.50;74.50;;;;;;5041514;28;20470;-74
2023/09/01 04:14:55;;;;;;;0.35;0.30;;;21.50;74.50;;;;;;5026038;28;20041;-74
2023/09/01 04:17:21;;;;;;;0.28;0.10;;;21.50;74.60;;;;;;5023529;28;20132;-74
2023/09/01 04:19:49;;;;;;;0.38;0.20;;;21.50;74.60;;;;;;5027521;28;20034;-74
2023/09/01 04:22:14;;;;;;;0.30;0.20;;;21.50;75.20;;;;;;5026868;28;20057;-74
2023/09/01 04:24:40;;;;;;;0.30;0.20;;;21.50;74.60;;;;;;5028083;28;20041;-74
2023/09/01 04:27:06;;;;;;;0.32;0.32;;;21.50;74.70;;;;;;5024445;28;20246;-74
2023/09/01 04:29:31;;;;;;;0.60;0.40;;;21.50;74.70;;;;;;5027129;28;20034;-74
2023/09/01 04:31:57;;;;;;;0.28;0.22;;;21.50;74.70;;;;;;5023465;28;20046;-74
2023/09/01 04:34:22;;;;;;;0.45;0.30;;;21.50;74.70;;;;;;5026023;28;20406;-74
2023/09/01 04:36:51;;;;;;;0.30;0.20;;;21.50;74.70;;;;;;5027303;28;20056;-73
2023/09/01 04:39:17;;;;;;;0.90;0.50;;;21.50;74.70;;;;;;5027817;28;20129;-74
2023/09/01 04:41:43;;;;;;;0.63;0.32;;;21.50;74.60;;;;;;5027254;28;20120;-74
2023/09/01 04:44:08;;;;;;;0.30;0.20;;;21.50;74.70;;;;;;5027112;28;20053;-74
2023/09/01 04:46:34;;;;;;;0.40;0.20;;;21.50;74.70;;;;;;5027473;28;20049;-74
2023/09/01 04:48:59;;;;;;;0.30;0.30;;;21.50;74.60;;;;;;5026663;28;20046;-73
2023/09/01 04:51:25;;;;;;;0.30;0.30;;;21.50;74.50;;;;;;5027566;28;20117;-74
2023/09/01 04:53:50;;;;;;;0.25;0.22;;;21.50;74.60;;;;;;5025618;28;20042;-74
2023/09/01 04:56:16;;;;;;;0.57;0.20;;;21.50;74.60;;;;;;5024952;28;20069;-74
2023/09/01 04:58:41;;;;;;;0.20;0.20;;;21.50;74.70;;;;;;5027215;28;20050;-74
2023/09/01 05:01:07;;;;;;;0.22;0.20;;;21.50;74.70;;;;;;5027005;28;20517;-74
2023/09/01 05:03:32;;;;;;;0.28;0.20;;;21.50;74.80;;;;;;5026320;28;20094;-74
2023/09/01 05:05:59;;;;;;;0.40;0.30;;;21.50;74.80;;;;;;5025056;28;20145;-73
2023/09/01 05:08:25;;;;;;;0.40;0.20;;;21.50;74.70;;;;;;5023296;28;20057;-73
2023/09/01 05:10:51;;;;;;;0.20;0.20;;;21.50;74.80;;;;;;5026575;28;20462;-73
2023/09/01 05:13:16;;;;;;;0.30;0.30;;;21.50;74.70;;;;;;5023406;28;20045;-73
2023/09/01 05:15:42;;;;;;;0.30;0.30;;;21.50;74.10;;;;;;4674644;28;9999827;-74
2023/09/01 05:18:07;;;;;;;0.30;0.30;;;21.50;74.00;;;;;;5020711;28;20053;-73
2023/09/01 05:20:33;;;;;;;0.40;0.40;;;21.50;74.00;;;;;;5021168;28;20052;-73
2023/09/01 05:22:59;;;;;;;0.60;0.22;;;21.50;73.90;;;;;;5020694;28;20693;-74
2023/09/01 05:25:24;;;;;;;0.50;0.22;;;21.50;74.00;;;;;;5021959;28;20179;-73
2023/09/01 05:27:50;;;;;;;0.50;0.40;;;21.50;74.00;;;;;;5021902;28;20046;-73
2023/09/01 05:30:15;;;;;;;0.30;0.28;;;21.50;74.00;;;;;;5049540;28;20056;-73
2023/09/01 05:32:41;;;;;;;0.35;0.30;;;21.50;74.00;;;;;;5022482;28;20140;-73
2023/09/01 05:35:07;;;;;;;0.30;0.30;;;21.50;74.00;;;;;;5015200;28;20049;-73
2023/09/01 05:37:33;;;;;;;0.20;0.20;;;21.50;73.90;;;;;;5020518;28;20091;-73
2023/09/01 05:39:58;;;;;;;0.20;0.20;;;21.60;73.80;;;;;;5022858;28;20033;-73
2023/09/01 05:42:24;;;;;;;0.25;0.25;;;21.50;73.70;;;;;;5020766;28;20150;-73
2023/09/01 05:44:49;;;;;;;0.30;0.30;;;21.50;73.70;;;;;;5022722;28;20056;-73
2023/09/01 05:47:15;;;;;;;0.30;0.30;;;21.50;73.70;;;;;;5021528;28;20066;-72
2023/09/01 05:49:40;;;;;;;0.35;0.30;;;21.50;73.60;;;;;;5022407;28;20048;-72
2023/09/01 05:52:06;;;;;;;0.45;0.30;;;21.50;73.60;;;;;;5020934;28;20643;-72
2023/09/01 05:54:32;;;;;;;0.35;0.20;;;21.50;73.60;;;;;;5022568;28;20033;-72
2023/09/01 05:56:57;;;;;;;0.45;0.30;;;21.50;73.60;;;;;;5018059;28;20060;-71
2023/09/01 05:59:23;;;;;;;0.52;0.30;;;21.50;73.60;;;;;;5015131;28;20057;-72
2023/09/01 06:01:48;;;;;;;0.68;0.32;;;21.50;73.70;;;;;;5015506;28;20064;-72
2023/09/01 06:04:14;;;;;;;0.65;0.50;;;21.50;75.90;;;;;;5020551;28;20061;-72
2023/09/01 06:06:40;;;;;;;0.75;0.68;;;21.40;78.80;;;;;;5020458;28;20049;-72
2023/09/01 06:09:07;;;;;;;1.30;0.73;;;21.20;79.60;;;;;;5021650;28;20076;-72
2023/09/01 06:11:33;;;;;;;1.30;0.77;;;21.10;80.00;;;;;;5019012;28;20034;-73
2023/09/01 06:13:59;;;;;;;1.50;0.75;;;21.20;81.10;;;;;;5021684;28;20371;-73
2023/09/01 06:16:25;;;;;;;2.42;0.80;;;21.10;82.30;;;;;;5021685;28;20058;-72
2023/09/01 06:18:52;;;;;;;1.17;0.57;;;21.00;82.70;;;;;;5002354;28;20128;-72
2023/09/01 06:21:17;;;;;;;1.30;0.75;;;21.00;83.20;;;;;;4999711;28;20045;-72
2023/09/01 06:23:46;;;;;;;1.42;0.90;;;21.00;83.60;;;;;;5004249;28;20164;-72
2023/09/01 06:26:17;;;;;;;2.13;0.80;;;21.00;83.60;;;;;;5018213;28;20091;-73
2023/09/01 06:28:46;;;;;;;2.88;1.23;;;20.90;82.60;;;;;;5021603;28;20060;-72
2023/09/01 06:31:13;;;;;;;1.42;0.60;;;21.00;83.30;;;;;;5020938;28;20036;-73
2023/09/01 06:33:43;;;;;;;1.08;0.57;;;20.90;83.70;;;;;;5022726;28;20033;-73
2023/09/01 06:36:13;;;;;;;1.02;0.60;;;21.00;83.70;;;;;;5023271;28;20046;-73
2023/09/01 06:38:39;;;;;;;1.17;0.68;;;20.90;84.30;;;;;;5025165;28;20084;-72
2023/09/01 06:41:04;;;;;;;1.35;0.88;;;20.80;84.20;;;;;;5022859;28;20046;-73
2023/09/01 06:43:30;;;;;;;0.65;0.50;;;20.90;83.80;;;;;;5025610;28;20051;-72
2023/09/01 06:45:56;;;;;;;0.60;0.40;;;21.00;83.30;;;;;;5024032;28;20180;-72
2023/09/01 06:48:22;;;;;;;0.90;0.65;;;21.10;82.60;;;;;;5028109;28;20535;-72
2023/09/01 06:50:48;;;;;;;0.65;0.40;;;21.20;82.70;;;;;;5028410;28;20045;-72
2023/09/01 06:53:13;;;;;;;0.95;0.65;;;21.10;82.90;;;;;;5027347;28;20538;-72
2023/09/01 06:55:39;;;;;;;1.10;0.80;;;21.20;82.50;;;;;;5029429;28;20065;-72
2023/09/01 06:58:05;;;;;;;1.20;0.73;;;21.20;82.90;;;;;;5027479;28;20047;-73
2023/09/01 07:00:31;;;;;;;1.67;0.63;;;21.20;82.80;;;;;;5029401;28;20036;-72
2023/09/01 07:02:57;;;;;;;1.25;0.88;;;21.20;82.60;;;;;;5027855;28;20454;-72
2023/09/01 07:05:23;;;;;;;1.15;0.57;;;21.10;83.30;;;;;;5027525;28;20045;-72
2023/09/01 07:07:50;;;;;;;1.40;0.80;;;21.20;83.00;;;;;;5028738;28;20517;-72
2023/09/01 07:10:16;;;;;;;1.08;0.73;;;21.20;83.30;;;;;;5018057;28;20132;-73
2023/09/01 07:12:41;;;;;;;1.67;0.70;;;21.10;83.80;;;;;;5028458;28;20136;-72
2023/09/01 07:15:08;;;;;;;1.13;0.50;;;21.10;84.30;;;;;;5027933;28;20116;-73
2023/09/01 07:17:33;;;;;;;1.15;0.60;;;21.10;83.40;;;;;;5028057;28;20095;-72
2023/09/01 07:19:59;;;;;;;2.22;0.70;;;21.20;83.30;;;;;;5027882;28;20049;-72
2023/09/01 07:22:24;;;;;;;0.93;0.60;;;21.20;83.40;;;;;;5028331;28;20041;-72
2023/09/01 07:24:50;;;;;;;1.02;0.45;;;21.20;83.30;;;;;;5028330;28;20049;-72
2023/09/01 07:27:15;;;;;;;1.10;0.50;;;21.10;83.60;;;;;;5027419;28;20041;-73
2023/09/01 07:29:41;;;;;;;0.93;0.52;;;21.10;83.80;;;;;;5027993;28;20476;-73
2023/09/01 07:32:07;;;;;;;0.82;0.50;;;21.20;83.00;;;;;;5026145;28;20022;-72
2023/09/01 07:34:33;;;;;;;0.47;0.30;;;21.20;83.30;;;;;;5026185;28;20068;-72
2023/09/01 07:36:59;;;;;;;2.53;0.70;;;21.10;84.20;;;;;;5026885;28;20041;-72
2023/09/01 07:39:24;;;;;;;1.10;0.70;;;21.10;83.80;;;;;;5027166;28;20049;-73
2023/09/01 07:41:50;;;;;;;1.85;0.77;;;21.10;84.00;;;;;;5028089;28;20610;-72
2023/09/01 07:44:20;;;;;;;0.70;0.57;;;21.10;84.40;;;;;;5026801;28;20030;-72
2023/09/01 07:46:45;;;;;;;0.65;0.57;;;21.10;84.00;;;;;;5026075;28;20578;-72
2023/09/01 07:49:11;;;;;;;0.60;0.50;;;21.20;84.90;;;;;;5027845;28;20125;-73
2023/09/01 07:51:38;;;;;;;0.88;0.63;;;21.10;84.90;;;;;;5027633;28;20050;-72
2023/09/01 07:54:04;;;;;;;0.60;0.47;;;21.20;84.60;;;;;;5027442;28;20037;-72
2023/09/01 07:56:32;;;;;;;0.90;0.60;;;21.20;84.70;;;;;;5027236;28;20045;-73
2023/09/01 07:58:57;;;;;;;0.80;0.50;;;21.20;84.90;;;;;;5026932;28;20045;-72
2023/09/01 08:01:23;;;;;;;1.23;0.60;;;21.20;85.70;;;;;;5022768;28;20041;-72
2023/09/01 08:03:48;;;;;;;0.65;0.50;;;21.20;84.80;;;;;;5022491;28;20128;-72
2023/09/01 08:06:14;;;;;;;0.98;0.50;;;21.30;84.80;;;;;;5024936;28;20049;-72
2023/09/01 08:08:39;;;;;;;0.70;0.47;;;21.30;84.80;;;;;;5026380;28;20407;-72
2023/09/01 08:11:05;;;;;;;1.20;0.60;;;21.20;85.10;;;;;;5024747;28;20109;-72
2023/09/01 08:13:30;;;;;;;0.65;0.45;;;21.30;85.50;;;;;;5025986;28;20037;-72
2023/09/01 08:15:56;;;;;;;0.63;0.40;;;21.40;85.30;;;;;;5024556;28;20380;-72
2023/09/01 08:18:22;;;;;;;1.48;0.63;;;21.30;85.20;;;;;;5023696;28;20120;-72
2023/09/01 08:20:47;;;;;;;1.20;0.43;;;21.30;85.00;;;;;;5026808;28;20203;-72
2023/09/01 08:23:13;;;;;;;0.68;0.68;;;21.30;85.60;;;;;;5025954;28;20562;-72
2023/09/01 08:25:39;;;;;;;0.70;0.45;;;21.30;85.40;;;;;;5024971;28;21256;-73
2023/09/01 08:28:04;;;;;;;0.90;0.55;;;21.40;85.40;;;;;;5020637;28;20130;-72
2023/09/01 08:30:30;;;;;;;0.50;0.50;;;21.40;85.10;;;;;;5019572;28;20049;-72
2023/09/01 08:32:56;;;;;;;1.13;0.45;;;21.30;85.10;;;;;;5019590;28;20303;-71
2023/09/01 08:35:21;;;;;;;0.95;0.70;;;21.40;85.00;;;;;;5020937;28;20174;-72
2023/09/01 08:37:47;;;;;;;0.98;0.40;;;21.40;85.40;;;;;;5022997;28;20056;-71
2023/09/01 08:40:12;;;;;;;0.50;0.30;;;21.30;85.00;;;;;;5023105;28;20041;-72
2023/09/01 08:42:47;;;;;;;1.90;0.32;;;21.30;85.90;;;;;;5013587;28;20060;-71
2023/09/01 08:45:14;;;;;;;0.43;0.30;;;21.30;86.00;;;;;;5022422;28;20034;-72
2023/09/01 08:47:49;;;;;;;0.35;0.30;;;21.30;86.10;;;;;;5020745;28;20045;-72
2023/09/01 08:50:15;;;;;;;0.90;0.45;;;21.30;85.30;;;;;;5011687;28;20052;-72
2023/09/01 08:52:42;;;;;;;0.25;0.20;;;21.30;85.80;;;;;;5023949;28;20042;-72
2023/09/01 08:55:07;;;;;;;2.30;0.30;;;21.40;85.70;;;;;;5025979;28;20036;-72
2023/09/01 08:57:33;;;;;;;0.80;0.30;;;21.30;85.40;;;;;;5023594;28;20045;-72
2023/09/01 08:59:59;;;;;;;0.70;0.30;;;21.40;85.20;;;;;;5023707;28;20052;-72
2023/09/01 09:02:24;;;;;;;0.50;0.20;;;21.40;85.10;;;;;;5024676;28;20041;-72
2023/09/01 09:04:50;;;;;;;0.52;0.35;;;21.40;85.40;;;;;;5020896;28;20511;-72
2023/09/01 09:07:20;;;;;;;0.43;0.40;;;21.40;85.40;;;;;;5026896;28;20053;-72
2023/09/01 09:09:56;;;;;;;0.30;0.30;;;21.40;85.10;;;;;;5026739;28;20041;-72
2023/09/01 09:12:22;;;;;;;0.68;0.35;;;21.40;85.30;;;;;;5020683;28;20127;-72
2023/09/01 09:14:54;;;;;;;1.65;0.30;;;21.30;85.90;;;;;;5017305;28;20037;-72
2023/09/01 09:17:21;;;;;;;0.40;0.30;;;21.40;86.00;;;;;;5014336;28;20045;-72
2023/09/01 09:19:54;;;;;;;0.30;0.20;;;21.40;85.70;;;;;;5021420;28;20051;-72
2023/09/01 09:22:20;;;;;;;0.73;0.35;;;21.40;85.70;;;;;;5021774;28;20477;-72
2023/09/01 09:24:46;;;;;;;0.30;0.30;;;21.40;85.40;;;;;;5020496;28;20515;-73
2023/09/01 09:27:18;;;;;;;0.38;0.28;;;21.40;85.40;;;;;;5015592;28;20187;-73
2023/09/01 09:29:45;;;;;;;0.50;0.40;;;21.50;85.20;;;;;;5021933;28;20033;-73
2023/09/01 09:32:24;;;;;;;0.35;0.22;;;21.40;86.20;;;;;;5019172;28;20049;-71
2023/09/01 09:35:09;;;;;;;0.38;0.20;;;21.40;85.00;;;;;;5015745;28;20064;-72
2023/09/01 09:37:35;;;;;;;0.45;0.22;;;21.40;85.40;;;;;;5007991;28;20389;-72
2023/09/01 09:40:11;;;;;;;0.40;0.40;;;21.40;85.30;;;;;;5024330;28;20053;-72
2023/09/01 09:42:41;;;;;;;0.20;0.20;;;21.40;86.00;;;;;;5025492;28;20049;-73
2023/09/01 09:45:24;;;;;;;0.82;0.20;;;21.40;85.70;;;;;;5025418;28;20048;-72
2023/09/01 09:47:49;;;;;;;0.20;0.10;;;21.50;85.70;;;;;;5015061;28;20041;-72
2023/09/01 09:50:18;;;;;;;0.90;0.30;;;21.50;85.30;;;;;;5021404;28;20114;-73
2023/09/01 09:52:59;;;;;;;0.43;0.30;;;21.50;85.20;;;;;;5023367;28;20050;-72
2023/09/01 09:55:28;;;;;;;0.45;0.20;;;21.50;85.50;;;;;;5022157;28;20685;-72
2023/09/01 09:58:04;;;;;;;0.38;0.25;;;21.50;85.50;;;;;;5025090;28;20136;-72
2023/09/01 10:00:40;;;;;;;1.55;0.30;;;21.60;85.90;;;;;;5014971;28;20136;-72
2023/09/01 10:03:07;;;;;;;0.40;0.20;;;21.50;85.80;;;;;;4996135;28;20115;-72
2023/09/01 10:05:33;;;;;;;1.63;0.32;;;21.60;85.50;;;;;;5014969;28;20058;-72
2023/09/01 10:08:02;;;;;;;0.32;0.32;;;21.60;85.60;;;;;;5009490;28;20053;-71
2023/09/01 10:10:28;;;;;;;1.65;0.50;;;21.60;85.60;;;;;;5022194;28;20152;-72
2023/09/01 10:12:53;;;;;;;0.25;0.20;;;21.60;84.00;;;;;;5028544;28;20046;-72
2023/09/01 10:15:19;;;;;;;0.75;0.50;;;21.60;84.60;;;;;;5027645;28;20057;-73
2023/09/01 10:17:45;;;;;;;0.52;0.40;;;21.60;84.90;;;;;;5009011;28;20200;-73
2023/09/01 10:20:12;;;;;;;0.63;0.30;;;21.60;85.10;;;;;;5021795;28;20076;-72
2023/09/01 10:22:40;;;;;;;0.35;0.28;;;21.60;84.70;;;;;;5028631;28;20049;-72
2023/09/01 10:25:08;;;;;;;1.50;0.30;;;21.60;84.50;;;;;;5031454;28;20026;-72
2023/09/01 10:27:34;;;;;;;0.40;0.30;;;21.60;84.10;;;;;;5027179;28;20040;-72
2023/09/01 10:29:59;;;;;;;0.77;0.40;;;21.60;83.80;;;;;;5028867;28;20042;-72
2023/09/01 10:32:26;;;;;;;0.85;0.25;;;21.60;83.20;;;;;;5027603;28;20376;-72
2023/09/01 10:34:52;;;;;;;0.40;0.30;;;21.60;83.00;;;;;;5024133;28;20080;-72
2023/09/01 10:37:27;;;;;;;0.25;0.20;;;21.60;83.10;;;;;;5028008;28;20463;-72
2023/09/01 10:39:52;;;;;;;0.75;0.40;;;21.60;82.90;;;;;;5029714;28;20030;-72
2023/09/01 10:42:25;;;;;;;0.30;0.10;;;21.60;82.90;;;;;;5024690;28;20042;-72
2023/09/01 10:44:50;;;;;;;0.45;0.30;;;21.60;82.50;;;;;;5022532;28;20041;-72
2023/09/01 10:47:31;;;;;;;0.40;0.30;;;21.60;82.40;;;;;;5025098;28;20049;-72
2023/09/01 10:50:01;;;;;;;0.38;0.32;;;21.60;82.20;;;;;;5027401;28;20053;-72
2023/09/01 10:52:28;;;;;;;0.30;0.30;;;21.60;82.00;;;;;;5027449;28;20037;-72
2023/09/01 10:54:59;;;;;;;0.22;0.22;;;21.60;81.90;;;;;;5026452;28;20029;-72
2023/09/01 10:57:46;;;;;;;0.25;0.25;;;21.60;81.50;;;;;;5027930;28;20053;-72
2023/09/01 11:00:31;;;;;;;0.30;0.30;;;21.60;81.40;;;;;;5027484;28;20067;-72
2023/09/01 11:03:25;;;;;;;0.20;0.20;;;21.60;81.30;;;;;;5026335;28;20045;-72
2023/09/01 11:05:55;;;;;;;0.40;0.20;;;21.70;81.00;;;;;;5026433;28;20043;-72
2023/09/01 11:08:21;;;;;;;0.30;0.30;;;21.70;81.00;;;;;;5027753;28;20511;-73
2023/09/01 11:10:46;;;;;;;0.50;0.30;;;21.60;80.70;;;;;;5026892;28;20038;-72
2023/09/01 11:13:16;;;;;;;0.57;0.20;;;21.60;80.80;;;;;;5027272;28;20046;-72
2023/09/01 11:15:46;;;;;;;1.35;0.50;;;21.60;80.60;;;;;;5025805;28;20119;-72
2023/09/01 11:18:16;;;;;;;0.60;0.25;;;21.60;80.50;;;;;;5026526;28;20037;-72
2023/09/01 11:20:42;;;;;;;0.38;0.28;;;21.60;80.20;;;;;;5015945;28;20050;-72
2023/09/01 11:23:09;;;;;;;0.75;0.40;;;21.70;80.30;;;;;;5023562;28;20048;-72
2023/09/01 11:25:34;;;;;;;1.05;0.50;;;21.70;81.10;;;;;;5027088;28;20143;-71
2023/09/01 11:28:00;;;;;;;1.92;0.47;;;21.70;82.30;;;;;;5041431;28;20526;-72
2023/09/01 11:30:26;;;;;;;0.68;0.40;;;21.70;82.30;;;;;;4666002;28;9999756;-72
2023/09/01 11:32:51;;;;;;;0.50;0.22;;;21.70;83.40;;;;;;5023116;28;21100;-72
2023/09/01 11:35:24;;;;;;;0.30;0.30;;;21.80;83.50;;;;;;5024537;28;20110;-72
2023/09/01 11:37:50;;;;;;;0.35;0.20;;;21.80;83.50;;;;;;5022717;28;20049;-72
2023/09/01 11:40:16;;;;;;;0.50;0.50;;;21.80;83.60;;;;;;5022599;28;20056;-72
2023/09/01 11:42:42;;;;;;;0.47;0.47;;;21.90;83.80;;;;;;5020411;28;20143;-72
2023/09/01 11:45:08;;;;;;;0.30;0.30;;;21.90;83.90;;;;;;5003964;28;20099;-72
2023/09/01 11:47:34;;;;;;;0.30;0.20;;;21.90;84.10;;;;;;5021633;28;20125;-74
2023/09/01 11:50:00;;;;;;;0.20;0.20;;;22.00;83.70;;;;;;5022880;28;20037;-73
2023/09/01 11:52:26;;;;;;;0.30;0.20;;;22.00;84.00;;;;;;5022540;28;20057;-74
2023/09/01 11:54:54;;;;;;;0.20;0.20;;;22.00;83.60;;;;;;5023687;28;20148;-75
2023/09/01 11:57:20;;;;;;;0.57;0.20;;;22.00;83.30;;;;;;5021151;28;20514;-74
2023/09/01 11:59:47;;;;;;;0.73;0.20;;;22.00;83.60;;;;;;5018593;28;20045;-74
2023/09/01 12:02:14;;;;;;;0.40;0.38;;;22.00;83.70;;;;;;5020543;28;20096;-72
2023/09/01 12:04:49;;;;;;;0.10;0.10;;;22.00;83.30;;;;;;5025600;28;20047;-73
2023/09/01 12:07:25;;;;;;;0.22;0.20;;;22.00;83.20;;;;;;5023524;28;20049;-72
2023/09/01 12:09:52;;;;;;;0.28;0.20;;;22.00;83.00;;;;;;5027550;28;20137;-73
2023/09/01 12:12:18;;;;;;;1.50;0.30;;;22.00;82.80;;;;;;5026538;28;20084;-73
2023/09/01 12:14:43;;;;;;;0.30;0.20;;;22.00;82.50;;;;;;5025526;28;20053;-73
2023/09/01 12:17:16;;;;;;;0.10;0.10;;;22.00;82.20;;;;;;5027895;28;20045;-73
2023/09/01 12:19:47;;;;;;;0.20;0.20;;;22.00;82.10;;;;;;5026508;28;20053;-73
2023/09/01 12:22:13;;;;;;;0.20;0.20;;;22.00;81.90;;;;;;5013304;28;20042;-73
2023/09/01 12:24:38;;;;;;;0.20;0.17;;;22.00;81.80;;;;;;5025692;28;20111;-73
2023/09/01 12:27:05;;;;;;;0.50;0.20;;;22.00;81.80;;;;;;5025984;28;20037;-73
2023/09/01 12:29:31;;;;;;;0.55;0.35;;;22.00;81.80;;;;;;5026026;28;20061;-73
2023/09/01 12:31:56;;;;;;;1.02;1.02;;;22.10;82.10;;;;;;5020947;28;20064;-73
2023/09/01 12:34:22;;;;;;;0.55;0.40;;;22.00;84.00;;;;;;5027796;28;20099;-73
2023/09/01 12:36:49;;;;;;;1.13;0.30;;;22.00;83.90;;;;;;5025348;28;20045;-73
2023/09/01 12:39:15;;;;;;;0.47;0.30;;;22.00;83.00;;;;;;5025095;28;20047;-73
2023/09/01 12:41:40;;;;;;;3.88;0.35;;;22.10;82.60;;;;;;5023145;28;20049;-73
2023/09/01 12:44:06;;;;;;;0.32;0.32;;;22.10;82.20;;;;;;5026765;28;20515;-73
2023/09/01 12:46:31;;;;;;;0.38;0.38;;;22.10;83.00;;;;;;5022836;28;20121;-73